Aérodrome :
LOGIN :

S'inscrire | Disclaimer

   EN    FR    IT 

 










Légende :    VFR   VFR Marginal   IFR   IFR Intensif   IFR Très Intensif
Visi : 
Plafond : 
>= 8 km
>= 3000ft
5 à 8 km
1000 à 3000 ft
1500m à 5 km
500 à 1000 ft
800 à 1500m
200 à 500 ft
< 800m
< 200 ft
Symboles :   Orages  Brouillard  Fortes neiges  Fortes précipitations  Vent > 20 kt
SIGMETs :   Divers  Orages  Givrage  Turbulence  Onde Orograph.  Cendres Volcan.







- Altitude de l'aérodrome : 40 ft
- Code IATA : RMI


LIPR - Federico Fellini Int. Rimini

DERNIER METAR :
  • 200315Z 27008KT 9999 FEW040 BKN060 04/01 Q1011

METARs EXPIRÉS :
  • 200245Z 27009KT 9999 FEW040 BKN060 04/01 Q1011
  • 200215Z 27008KT 9999 FEW035 BKN060 05/02 Q1013
  • 200145Z 27010KT 9999 FEW035 BKN060 05/02 Q1013
  • 200115Z 27009KT 9999 SCT030 BKN060 05/02 Q1013
  • 200045Z 28006KT 9999 BKN035 05/02 Q1013

TAF TAF LIPR
Valide du 20 à 03h jusqu'au 20 à 12h UTC


200200Z 2003/2012 28006KT 9999 BKN030
TEMPO 2003/2012 30015G25KT
PROB30
TEMPO 2003/2007 2000 BR BKN015
Pas de NOTAMs connus pour ce terrain.
1 SIGMET publié pour la FIR Milano (LIMM) :
 
Turbulence forte
LIMM SIGMET 1 VALID 200130/200530 LIIP
LIMM MILANO FIR SEV TURB FCST W OF LINE N4713 E01154 - N4302 E01014 FL240/380 STNR NC=



MET'MAP, la Météo Aéronautique d'un coup d'oeil ! - Copyright ORBIFLY Décembre 2007 - Disclaimer

ORBIFLY MET'MAP TEAM :

Programmation & Développement : Alexandra Zaïnal
Conception & Développement : Baudouin d'Aumeries
Co-Programmation & Développement : Marc-Olivier Méhu
Soutien technique & logistique : Manuel Goepfert

Contact : metmap@orbifly.com




SOURCES & CREDITS :

   NOAA